Bookmark and Share
Track history (hours):
 

King of Scandinavia

Ship's website: http://www.dfds.co.uk/DSW/EN/OnBoard/na/KING.htm

Last reported at 2014-Apr-17 20:34 UTC. Time now 2014-Apr-18 00:20 UTC.
Position N 54°19' E 000°31'.

Length 166 m; beam 27.6 m; draft 6.2 m.

Type: Passenger vessel. MMSI: 220449000.

NotesDate/timePositionNaut miles runAvg speedWind from/ knotsBaromVisibWave heightAir tempDewpointWater temp
2014-Apr-17 20:34N 54°19' E 000°31'1918.7
2014-Apr-17 19:34N 54°29' E 000°04'1919.1
2014-Apr-17 18:34N 54°38' W 000°24'2019.6
2014-Apr-17 17:33N 54°49' W 000°53'2 0.2
2014-Apr-17 06:33N 54°50' W 000°50'2316.4
2014-Apr-17 05:08N 54°37' W 000°17'916.6
2014-Apr-17 04:33N 54°32' W 000°03'1716.9
2014-Apr-17 03:33N 54°22' E 000°21'14616.1
2014-Apr-16 18:27N 52°56' E 003°40'1416.0
2014-Apr-16 17:33N 52°47' E 003°58'1616.3
2014-Apr-16 16:33N 52°36' E 004°19'1313.0
2014-Apr-16 15:33N 52°28' E 004°35'0 0.0
2014-Apr-16 14:33N 52°28' E 004°35'0 0.0
2014-Apr-16 13:33N 52°28' E 004°35'0 0.0
2014-Apr-16 12:30N 52°28' E 004°35'0 0.0
2014-Apr-16 11:33N 52°28' E 004°35'0 0.0
2014-Apr-16 10:33N 52°28' E 004°35'0 0.0
2014-Apr-16 09:33N 52°28' E 004°35'0 0.0
2014-Apr-16 08:33N 52°28' E 004°35'0 0.1
2014-Apr-16 07:33N 52°28' E 004°35'1111.4
2014-Apr-16 06:34N 52°35' E 004°20'12616.9
2014-Apr-15 23:07N 53°54' E 001°36'1918.4
2014-Apr-15 22:03N 54°04' E 001°09'917.8
2014-Apr-15 21:34N 54°09' E 000°56'1716.9
2014-Apr-15 20:34N 54°19' E 000°32'1717.1
2014-Apr-15 19:34N 54°28' E 000°07'1717.5
2014-Apr-15 18:34N 54°38' W 000°18'2219.3
2014-Apr-15 17:26N 54°49' W 000°50'1820.0
2014-Apr-15 16:33N 54°58' W 001°16'3 0.3
2014-Apr-15 06:32N 55°01' W 001°18'1616.0
2014-Apr-15 05:33N 54°52' W 000°55'3316.6
2014-Apr-15 03:34N 54°34' W 000°07'1616.2
2014-Apr-15 02:34N 54°25' E 000°16'17217.2
2014-Apr-14 16:33N 52°42' E 004°08'1313.0
2014-Apr-14 15:34N 52°33' E 004°23'9 8.7
2014-Apr-14 14:33N 52°28' E 004°35'0 0.0
2014-Apr-14 13:33N 52°28' E 004°35'0 0.0
2014-Apr-14 11:33N 52°28' E 004°35'0 0.0
2014-Apr-14 10:30N 52°28' E 004°35'0 0.0
2014-Apr-14 09:33N 52°28' E 004°35'0 0.0
2014-Apr-14 08:33N 52°28' E 004°35'0 0.0
2014-Apr-14 07:33N 52°28' E 004°35'0 0.1
2014-Apr-14 06:33N 52°28' E 004°35'10 9.8
2014-Apr-14 05:33N 52°33' E 004°22'17319.2
2014-Apr-13 20:34N 54°19' E 000°32'1817.5
2014-Apr-13 19:33N 54°29' E 000°06'1817.7
2014-Apr-13 18:34N 54°38' W 000°19'2118.3
2014-Apr-13 17:25N 54°49' W 000°49'1618.6
2014-Apr-13 16:33N 54°58' W 001°13'16 1.6
2014-Apr-13 06:33N 54°49' W 000°49'2219.2
2014-Apr-13 05:24N 54°38' W 000°16'1518.1
2014-Apr-13 04:33N 54°29' E 000°05'1816.5
2014-Apr-13 03:27N 54°19' E 000°31'17215.7
2014-Apr-12 16:31N 52°35' E 004°20'1111.1
2014-Apr-12 15:30N 52°28' E 004°35'0 0.0
2014-Apr-12 14:33N 52°28' E 004°35'0 0.0
2014-Apr-12 13:33N 52°28' E 004°35'0 0.0
2014-Apr-12 12:33N 52°28' E 004°35'0 0.0
2014-Apr-12 11:33N 52°28' E 004°35'0 0.0
2014-Apr-12 10:33N 52°28' E 004°35'0 0.0
2014-Apr-12 09:33N 52°28' E 004°35'0 0.0
2014-Apr-12 08:33N 52°28' E 004°35'0 0.2
2014-Apr-12 07:33N 52°28' E 004°35'1212.1
2014-Apr-12 06:33N 52°35' E 004°19'17217.2
2014-Apr-11 20:34N 54°19' E 000°29'1918.8
2014-Apr-11 19:33N 54°30' E 000°02'1918.8
2014-Apr-11 18:33N 54°40' W 000°25'1919.1
2014-Apr-11 17:33N 54°50' W 000°53'4 0.4
2014-Apr-11 06:33N 54°48' W 000°47'2117.7
2014-Apr-11 05:23N 54°37' W 000°16'1517.9
2014-Apr-11 04:32N 54°29' E 000°05'1717.8
2014-Apr-11 03:34N 54°19' E 000°29'15517.2
2014-Apr-10 18:33N 52°47' E 003°59'1615.6
2014-Apr-10 17:33N 52°36' E 004°18'1313.5
2014-Apr-10 16:33N 52°28' E 004°35'0 0.1
2014-Apr-10 15:20N 52°28' E 004°35'0 0.0
2014-Apr-10 14:29N 52°28' E 004°35'0 0.0
2014-Apr-10 13:32N 52°28' E 004°35'0 0.0
2014-Apr-10 12:23N 52°28' E 004°35'0 0.0
2014-Apr-10 11:29N 52°28' E 004°35'0 0.0
2014-Apr-10 10:11N 52°28' E 004°35'0 0.0
2014-Apr-10 09:32N 52°28' E 004°35'0 0.0
2014-Apr-10 08:29N 52°28' E 004°35'0 0.1
2014-Apr-10 07:34N 52°28' E 004°35'1110.8
2014-Apr-10 06:33N 52°34' E 004°21'1716.6
2014-Apr-10 05:33N 52°45' E 003°60'15817.6
2014-Apr-09 20:33N 54°20' E 000°28'1818.0
2014-Apr-09 19:33N 54°30' E 000°01'1817.8
2014-Apr-09 18:33N 54°41' W 000°23'1817.8
2014-Apr-09 17:32N 54°50' W 000°50'1 0.1
2014-Apr-09 06:33N 54°50' W 000°49'2219.3
2014-Apr-09 05:24N 54°37' W 000°17'1518.1
2014-Apr-09 04:33N 54°29' E 000°05'1817.9
2014-Apr-09 03:33N 54°19' E 000°31'15715.5
2014-Apr-08 17:29N 52°45' E 004°01'1213.5
2014-Apr-08 16:33N 52°36' E 004°16'14 9.7
2014-Apr-08 15:05N 52°28' E 004°35'0 0.0
2014-Apr-08 14:14N 52°28' E 004°35'0 0.0
2014-Apr-08 13:20N 52°28' E 004°35'0 0.0
2014-Apr-08 12:32N 52°28' E 004°35'0 0.0
2014-Apr-08 11:20N 52°28' E 004°35'0 0.0
2014-Apr-08 10:32N 52°28' E 004°35'0 0.0
2014-Apr-08 08:29N 52°28' E 004°35'0 0.3
2014-Apr-08 07:29N 52°28' E 004°35'  

Dump ship's entire track history

sailing weather and tide predictions

King of Scandinavia — OVOL2 — position and weather